Warwick, MA (01378)

4:55 PM EDT on April 25, 2017 (GMT -0400)
Mountain Road in Erving | | Change Station

Elev 748 ft 42.61 °N, 72.41 °W | Updated 1 second ago

Rain
Rain
46.9 °F
Feels Like 45 °F
N
4.0
Wind Variable Wind from WSW

Today
High -- | Low -- °F
--% Chance of Precip.
Yesterday
High -- | Low -- °F
Precip. -- in
Pressure 30.18 in
Visibility 5.0 miles
Clouds Overcast 1300 ft
Windchill 45 °F
Dew Point 43 °F
Humidity 88%
Rainfall 0.15 in
Snow Depth Not available.
5:52 AM 7:43 PM
Waning Crescent, 1% visible
METAR KORE 252052Z AUTO 05008KT 5SM -RA BR OVC013 08/07 A3017 RMK AO2 SLP218 P0003 60003 T00830067 56016 TSNO
Pressure 30.18 in
Visibility 5.0 miles
Clouds Overcast 1300 ft
Windchill 45 °F
Dew Point 43 °F
Humidity 88%
Rainfall 0.15 in
Snow Depth Not available.
5:52 AM 7:43 PM
Waning Crescent, 1% visible
METAR KORE 252052Z AUTO 05008KT 5SM -RA BR OVC013 08/07 A3017 RMK AO2 SLP218 P0003 60003 T00830067 56016 TSNO

Get Severe Weather Alerts

Thanks for signing up!

Be on the lookout for a verification email in your inbox.

You'll start receiving the daily forecast at 8 AM.

×

10-Day Weather Forecast

Almanac

Astronomy

Apr. 25, 2017 Rise Set
Actual Time
Civil Twilight
Nautical Twilight
Astronomical Twilight
Moon
Length of Visible Light
Length of Day
Tomorrow will be .
, % of the Moon is Illuminated

Today's Extremes

State Highs State Lows

Community

WunderPhotos

WunderBlog® & News

Nearby

Air Quality

  Air Quality AQ Index Pollutant
Not available.

Snow Depth

Station Depth Elevation

Earthquake Activity

City Distance Mag. Time & Date
Minimum magnitude displayed is 2.5.

Coastal Water Temperatures

Place Temperature

Stations

Nearby Weather Stations

Station Location Temp. Windchill Dew Point Humidity Wind Precip. Elev Updated Type
                   

Watches & Warnings

There are currently no watches in effect.